.
WxDataArchive / Data Records for 2009-10-17
2009-10-16 October 2009 2009-10-18

Data Records for Saturday, 17 October 2009

Time	Temp	Chill	HIndex	Humid	Dewpt	 Wind 	HiWind	WindDir	Rain 	Barom 
-----	----	-----	------	-----	-----	------	------	-------	-----	----- 
00:00	40.1	40.1	40.1	73	32.2	0	0	---	0.00	30.161 
00:05	40.1	40.1	40.1	74	32.5	0	0	---	0.00	30.161 
00:10	39.9	39.9	39.9	74	32.3	0	0	---	0.00	30.161 
00:15	39.9	39.9	39.9	74	32.3	0	0	---	0.00	30.160 
00:20	39.8	39.8	39.8	74	32.2	0	1	112	0.00	30.160 
00:25	39.8	39.8	39.8	74	32.2	0	0	---	0.00	30.160 
00:30	39.8	39.8	39.8	74	32.2	0	0	---	0.00	30.156 
00:35	39.6	39.6	39.6	74	32.0	0	0	---	0.00	30.156 
00:40	39.6	39.6	39.6	75	32.3	0	0	---	0.00	30.156 
00:45	39.6	39.6	39.6	75	32.3	0	0	---	0.00	30.157 
00:50	39.6	39.6	39.6	75	32.3	0	0	---	0.00	30.157 
00:55	39.5	39.5	39.5	75	32.2	0	1	112	0.00	30.157 
01:00	39.2	39.2	39.2	75	32.0	0	1	112	0.00	30.154 
01:05	38.9	38.9	38.9	76	32.0	0	0	---	0.00	30.154 
01:10	38.6	38.6	38.6	76	31.7	0	0	---	0.00	30.154 
01:15	38.5	38.5	38.5	77	31.9	0	0	---	0.00	30.156 
01:20	38.2	38.2	38.2	77	31.6	0	0	---	0.00	30.156 
01:25	37.9	37.9	37.9	78	31.7	0	0	---	0.00	30.156 
01:30	37.6	37.6	37.6	78	31.4	0	0	---	0.00	30.163 
01:35	37.3	37.3	37.3	79	31.4	0	0	---	0.00	30.163 
01:40	37.0	37.0	37.0	80	31.4	0	0	---	0.00	30.163 
01:45	36.9	36.9	36.9	80	31.3	0	0	---	0.00	30.167 
01:50	36.8	36.8	36.8	81	31.5	0	0	---	0.00	30.167 
01:55	36.6	36.6	36.6	81	31.3	0	0	---	0.00	30.167 
02:00	36.5	36.5	36.5	81	31.2	0	0	---	0.00	30.169 
02:05	36.3	36.3	36.3	81	31.0	0	0	---	0.00	30.169 
02:10	36.2	36.2	36.2	81	30.9	0	1	112	0.00	30.169 
02:15	36.0	36.0	36.0	81	30.7	0	0	---	0.00	30.167 
02:20	35.9	35.9	35.9	81	30.6	0	0	---	0.00	30.167 
02:25	35.8	35.8	35.8	81	30.6	0	0	---	0.00	30.167 
02:30	35.6	35.6	35.6	81	30.4	0	0	---	0.00	30.168 
02:35	35.5	35.5	35.5	82	30.6	0	0	---	0.00	30.168 
02:40	35.3	35.3	35.3	82	30.4	0	0	---	0.00	30.168 
02:45	35.2	35.2	35.2	82	30.3	0	0	---	0.00	30.174 
02:50	35.0	35.0	35.0	82	30.1	0	0	---	0.00	30.174 
02:55	34.9	34.9	34.9	83	30.3	0	0	---	0.00	30.174 
03:00	34.7	34.7	34.7	83	30.1	0	0	---	0.00	30.178 
03:05	34.6	34.6	34.6	83	30.0	0	0	---	0.00	30.178 
03:10	34.3	34.3	34.3	83	29.7	0	0	---	0.00	30.178 
03:15	34.1	34.1	34.1	84	29.8	0	0	---	0.00	30.181 
03:20	34.1	34.1	34.1	84	29.8	0	0	---	0.00	30.181 
03:25	34.0	34.0	34.0	84	29.7	0	0	---	0.00	30.181 
03:30	34.0	34.0	34.0	84	29.7	0	0	---	0.00	30.182 
03:35	33.8	33.8	33.8	84	29.5	0	0	---	0.00	30.182 
03:40	33.7	33.7	33.7	84	29.4	0	0	---	0.00	30.182 
03:45	33.5	33.5	33.5	84	29.2	0	0	---	0.00	30.181 
03:50	33.4	33.4	33.4	85	29.4	0	0	---	0.00	30.181 
03:55	33.2	33.2	33.2	85	29.2	0	0	---	0.00	30.181 
04:00	33.1	33.1	33.1	85	29.1	0	0	---	0.00	30.180 
04:05	32.9	32.9	32.9	85	28.9	0	0	---	0.00	30.180 
04:10	32.7	32.7	32.7	85	28.7	0	0	---	0.00	30.180 
04:15	32.5	32.5	32.5	86	28.8	0	0	---	0.00	30.182 
04:20	32.4	32.4	32.4	86	28.7	0	0	---	0.00	30.182 
04:25	32.2	32.2	32.2	86	28.5	0	0	---	0.00	30.182 
04:30	32.1	32.1	32.1	87	28.7	0	0	---	0.00	30.184 
04:35	31.9	31.9	31.9	87	28.5	0	0	---	0.00	30.184 
04:40	31.9	31.9	31.9	87	28.5	0	0	---	0.00	30.184 
04:45	31.8	31.8	31.8	87	28.4	0	0	---	0.00	30.187 
04:50	31.6	31.6	31.6	88	28.5	0	0	---	0.00	30.187 
04:55	31.5	31.5	31.5	88	28.4	0	0	---	0.00	30.187 
05:00	31.5	31.5	31.5	88	28.4	0	0	---	0.00	30.189 
05:05	31.3	31.3	31.3	88	28.2	0	0	---	0.00	30.189 
05:10	31.3	31.3	31.3	88	28.2	0	0	---	0.00	30.189 
05:15	31.3	31.3	31.3	88	28.2	0	0	---	0.00	30.191 
05:20	31.3	31.3	31.3	88	28.2	0	0	---	0.00	30.191 
05:25	31.5	31.5	31.5	88	28.4	0	0	---	0.00	30.191 
05:30	31.5	31.5	31.5	88	28.4	0	0	---	0.00	30.199 
05:35	31.5	31.5	31.5	88	28.4	0	0	---	0.00	30.199 
05:40	31.6	31.6	31.6	88	28.5	0	0	---	0.00	30.199 
05:45	31.6	31.6	31.6	88	28.5	0	0	---	0.00	30.201 
05:50	31.6	31.6	31.6	88	28.5	0	0	---	0.00	30.201 
05:55	31.6	31.6	31.6	87	28.2	0	1	112	0.00	30.201 
06:00	31.6	31.6	31.6	87	28.2	0	0	---	0.00	30.204 
06:05	31.6	31.6	31.6	87	28.2	0	0	---	0.00	30.204 
06:10	31.5	31.5	31.5	87	28.1	0	0	---	0.00	30.204 
06:15	31.5	31.5	31.5	87	28.1	0	0	---	0.00	30.208 
06:20	31.5	31.5	31.5	87	28.1	0	0	---	0.00	30.208 
06:25	31.5	31.5	31.5	87	28.1	0	0	---	0.00	30.208 
06:30	31.5	31.5	31.5	87	28.1	0	0	---	0.00	30.216 
06:35	31.3	31.3	31.3	87	27.9	0	0	---	0.00	30.216 
06:40	31.3	31.3	31.3	87	27.9	0	0	---	0.00	30.216 
06:45	31.2	31.2	31.2	87	27.8	0	0	---	0.00	30.219 
06:50	31.0	31.0	31.0	87	27.6	0	0	---	0.00	30.219 
06:55	31.0	31.0	31.0	87	27.6	0	0	---	0.00	30.219 
07:00	31.0	31.0	31.0	87	27.6	0	0	---	0.00	30.223 
07:05	30.9	30.9	30.9	87	27.5	0	0	---	0.00	30.223 
07:10	30.7	30.7	30.7	87	27.3	0	0	---	0.00	30.223 
07:15	30.6	30.6	30.6	87	27.2	0	0	---	0.00	30.234 
07:20	30.6	30.6	30.6	87	27.2	0	0	---	0.00	30.234 
07:25	30.6	30.6	30.6	88	27.5	0	0	---	0.00	30.234 
07:30	30.6	30.6	30.6	88	27.5	0	0	---	0.00	30.236 
07:35	30.6	30.6	30.6	88	27.5	0	0	---	0.00	30.236 
07:40	30.6	30.6	30.6	88	27.5	0	0	---	0.00	30.236 
07:45	30.6	30.6	30.6	88	27.5	0	0	---	0.00	30.238 
07:50	30.6	30.6	30.6	88	27.5	0	0	---	0.00	30.238 
07:55	30.7	30.7	30.7	88	27.6	0	0	---	0.00	30.238 
08:00	30.9	30.9	30.9	88	27.8	0	1	112	0.00	30.243 
08:05	31.0	31.0	31.0	88	27.9	0	0	---	0.00	30.243 
08:10	31.3	31.3	31.3	88	28.2	0	0	---	0.00	30.243 
08:15	31.5	31.5	31.5	87	28.1	0	0	---	0.00	30.245 
08:20	31.8	31.8	31.8	87	28.4	0	0	---	0.00	30.245 
08:25	32.1	32.1	32.1	87	28.7	0	1	112	0.00	30.245 
08:30	32.4	32.4	32.4	86	28.7	0	1	112	0.00	30.251 
08:35	32.7	32.7	32.7	85	28.7	0	1	112	0.00	30.251 
08:40	32.8	32.8	32.8	85	28.8	0	1	112	0.00	30.251 
08:45	32.9	32.9	32.9	84	28.6	0	1	135	0.00	30.252 
08:50	33.1	33.1	33.1	84	28.8	0	0	---	0.00	30.252 
08:55	33.4	33.4	33.4	84	29.1	0	0	---	0.00	30.252 
09:00	33.5	33.5	33.5	84	29.2	0	1	135	0.00	30.262 
09:05	33.8	33.8	33.8	83	29.2	0	0	---	0.00	30.262 
09:10	34.1	34.1	34.1	83	29.5	0	1	135	0.00	30.262 
09:15	34.4	34.4	34.4	82	29.5	0	1	135	0.00	30.268 
09:20	34.6	34.6	34.6	81	29.4	0	1	135	0.00	30.268 
09:25	35.0	35.0	35.0	81	29.8	0	1	135	0.00	30.268 
09:30	35.3	35.3	35.3	81	30.1	0	1	135	0.00	30.272 
09:35	35.6	35.6	35.6	80	30.1	0	1	135	0.00	30.272 
09:40	35.9	35.9	35.9	80	30.3	0	1	135	0.00	30.272 
09:45	36.3	36.3	36.3	79	30.4	0	1	135	0.00	30.277 
09:50	36.9	36.9	36.9	78	30.7	0	2	135	0.00	30.277 
09:55	37.3	37.3	37.3	77	30.8	0	2	135	0.00	30.277 
10:00	37.9	37.9	37.9	75	30.7	0	3	315	0.00	30.276 
10:05	38.3	38.3	38.3	74	30.8	1	3	292	0.00	30.276 
10:10	38.9	38.9	38.9	73	31.0	0	1	315	0.00	30.276 
10:15	39.5	39.5	39.5	71	30.9	0	3	270	0.00	30.277 
10:20	39.9	39.9	39.9	69	30.6	0	2	338	0.00	30.277 
10:25	40.5	40.5	40.5	69	31.1	0	2	338	0.00	30.277 
10:30	41.1	41.1	41.1	68	31.4	0	2	338	0.00	30.275 
10:35	41.3	41.3	41.3	67	31.2	1	3	315	0.00	30.275 
10:40	41.8	41.8	41.8	67	31.7	0	2	315	0.00	30.275 
10:45	42.2	42.2	42.2	66	31.7	1	3	315	0.00	30.276 
10:50	42.6	42.6	42.6	66	32.0	1	6	68	0.00	30.276 
10:55	43.3	43.3	43.3	65	32.3	1	5	112	0.00	30.276 
11:00	43.9	43.9	43.9	64	32.5	1	4	270	0.00	30.277 
11:05	44.1	44.1	44.1	62	31.9	1	3	112	0.00	30.277 
11:10	44.2	44.2	44.2	60	31.2	0	2	315	0.00	30.277 
11:15	44.2	44.2	44.2	60	31.2	1	5	315	0.00	30.279 
11:20	44.5	44.5	44.5	60	31.5	1	3	90	0.00	30.279 
11:25	44.6	44.6	44.6	58	30.7	1	5	112	0.00	30.279 
11:30	44.6	44.6	44.6	55	29.4	1	4	315	0.00	30.277 
11:35	44.8	44.8	44.8	55	29.6	1	6	315	0.00	30.277 
11:40	45.1	45.1	45.1	56	30.4	1	5	338	0.00	30.277 
11:45	45.2	45.2	45.2	56	30.4	1	4	22	0.00	30.280 
11:50	45.2	45.2	45.2	55	30.0	0	3	315	0.00	30.280 
11:55	45.1	45.1	45.1	53	29.0	1	4	292	0.00	30.280 
12:00	45.2	45.2	45.2	55	30.0	1	5	315	0.00	30.283 
12:05	45.2	45.2	45.2	55	30.0	1	5	270	0.00	30.283 
12:10	45.5	45.5	45.5	53	29.4	1	5	0	0.00	30.283 
12:15	45.8	45.8	45.8	54	30.1	1	5	112	0.00	30.284 
12:20	46.5	46.5	46.5	53	30.3	0	2	112	0.00	30.284 
12:25	46.8	46.8	46.8	53	30.6	0	4	68	0.00	30.284 
12:30	47.0	47.0	47.0	52	30.3	1	5	315	0.00	30.283 
12:35	47.6	47.6	47.6	52	30.9	1	7	68	0.00	30.283 
12:40	47.7	47.7	47.7	47	28.5	1	3	22	0.00	30.283 
12:45	47.1	47.1	47.1	47	27.9	1	4	22	0.00	30.281 
12:50	46.8	46.8	46.8	47	27.6	1	6	270	0.00	30.281 
12:55	46.5	46.5	46.5	47	27.4	1	7	292	0.00	30.281 
13:00	47.0	47.0	47.0	49	28.8	2	6	112	0.00	30.280 
13:05	46.7	46.7	46.7	47	27.6	1	3	68	0.00	30.280 
13:10	46.4	46.4	46.4	48	27.8	1	2	292	0.00	30.280 
13:15	46.7	46.7	46.7	48	28.1	1	7	112	0.00	30.286 
13:20	46.2	46.2	46.2	48	27.6	1	2	338	0.00	30.286 
13:25	46.1	46.1	46.1	45	26.0	2	9	292	0.00	30.286 
13:30	46.0	46.0	46.0	45	25.9	1	4	338	0.00	30.289 
13:35	46.2	46.2	46.2	46	26.6	1	4	270	0.00	30.289 
13:40	46.5	46.5	46.5	45	26.3	1	4	292	0.00	30.289 
13:45	46.4	46.4	46.4	46	26.8	1	3	45	0.00	30.289 
13:50	46.4	46.4	46.4	46	26.8	1	6	0	0.00	30.289 
13:55	46.7	46.7	46.7	46	27.0	2	6	135	0.00	30.289 
14:00	46.8	46.8	46.8	45	26.6	1	6	135	0.00	30.281 
14:05	46.2	46.2	46.2	46	26.6	1	4	45	0.00	30.281 
14:10	46.0	46.0	46.0	47	26.9	1	3	45	0.00	30.281 
14:15	46.1	46.1	46.1	46	26.5	1	5	112	0.00	30.278 
14:20	46.0	46.0	46.0	45	25.9	0	2	0	0.00	30.278 
14:25	46.4	46.4	46.4	48	27.8	1	4	112	0.00	30.278 
14:30	46.4	46.4	46.4	47	27.3	1	5	292	0.00	30.277 
14:35	46.2	46.2	46.2	46	26.6	1	3	315	0.00	30.277 
14:40	46.1	46.1	46.1	45	26.0	1	3	45	0.00	30.277 
14:45	46.8	46.8	46.8	47	27.6	0	2	0	0.00	30.272 
14:50	47.3	47.3	47.3	47	28.1	1	6	292	0.00	30.272 
14:55	47.0	47.0	47.0	45	26.8	0	2	292	0.00	30.272 
15:00	46.8	46.8	46.8	47	27.6	1	5	292	0.00	30.269 
15:05	47.4	47.4	47.4	42	25.5	1	5	0	0.00	30.269 
15:10	47.1	47.1	47.1	43	25.8	0	3	248	0.00	30.269 
15:15	47.4	47.4	47.4	45	27.1	1	5	112	0.00	30.267 
15:20	47.6	47.6	47.6	43	26.2	1	5	112	0.00	30.267 
15:25	47.0	47.0	47.0	44	26.2	1	3	0	0.00	30.267 
15:30	46.5	46.5	46.5	46	26.8	0	2	112	0.00	30.266 
15:35	46.4	46.4	46.4	43	25.1	0	2	68	0.00	30.266 
15:40	46.2	46.2	46.2	45	26.0	0	2	180	0.00	30.266 
15:45	46.5	46.5	46.5	45	26.3	0	3	45	0.00	30.267 
15:50	47.1	47.1	47.1	44	26.3	0	2	135	0.00	30.267 
15:55	47.1	47.1	47.1	43	25.8	0	3	135	0.00	30.267 
16:00	46.8	46.8	46.8	43	25.5	0	3	270	0.00	30.271 
16:05	47.1	47.1	47.1	42	25.2	1	3	270	0.00	30.271 
16:10	47.3	47.3	47.3	43	25.9	1	10	338	0.00	30.271 
16:15	47.0	47.0	47.0	45	26.8	1	6	338	0.00	30.274 
16:20	46.5	46.5	46.5	44	25.8	1	2	135	0.00	30.274 
16:25	46.4	46.4	46.4	44	25.7	0	2	135	0.00	30.274 
16:30	46.8	46.8	46.8	43	25.5	1	5	90	0.00	30.276 
16:35	47.0	47.0	47.0	42	25.1	1	5	135	0.00	30.276 
16:40	46.7	46.7	46.7	42	24.8	1	4	135	0.00	30.276 
16:45	46.4	46.4	46.4	41	24.0	0	4	112	0.00	30.274 
16:50	46.5	46.5	46.5	40	23.5	1	6	112	0.00	30.274 
16:55	46.7	46.7	46.7	43	25.4	1	3	90	0.00	30.274 
17:00	46.5	46.5	46.5	41	24.1	1	5	315	0.00	30.276 
17:05	46.2	46.2	46.2	42	24.4	0	2	315	0.00	30.276 
17:10	46.2	46.2	46.2	40	23.2	1	3	315	0.00	30.276 
17:15	46.2	46.2	46.2	40	23.2	0	1	68	0.00	30.279 
17:20	46.2	46.2	46.2	41	23.8	0	1	68	0.00	30.279 
17:25	46.2	46.2	46.2	43	25.0	0	6	112	0.00	30.279 
17:30	46.4	46.4	46.4	42	24.6	1	6	68	0.00	30.277 
17:35	46.2	46.2	46.2	42	24.4	0	2	112	0.00	30.277 
17:40	46.2	46.2	46.2	43	25.0	0	2	338	0.00	30.277 
17:45	46.0	46.0	46.0	42	24.2	0	5	180	0.00	30.278 
17:50	46.0	46.0	46.0	42	24.2	0	2	180	0.00	30.278 
17:55	46.1	46.1	46.1	44	25.4	0	2	68	0.00	30.278 
18:00	46.1	46.1	46.1	46	26.5	0	1	68	0.00	30.278 
18:05	46.1	46.1	46.1	44	25.4	1	5	90	0.00	30.278 
18:10	46.0	46.0	46.0	43	24.8	0	1	90	0.00	30.278 
18:15	46.0	46.0	46.0	44	25.3	0	1	90	0.00	30.282 
18:20	45.7	45.7	45.7	43	24.5	0	1	90	0.00	30.282 
18:25	45.5	45.5	45.5	45	25.4	0	0	---	0.00	30.282 
18:30	45.4	45.4	45.4	46	25.8	0	0	---	0.00	30.282 
18:35	45.2	45.2	45.2	46	25.7	0	0	---	0.00	30.282 
18:40	45.1	45.1	45.1	46	25.6	0	0	---	0.00	30.282 
18:45	44.8	44.8	44.8	47	25.8	0	0	---	0.00	30.287 
18:50	44.5	44.5	44.5	48	26.0	0	0	---	0.00	30.287 
18:55	44.2	44.2	44.2	48	25.8	0	0	---	0.00	30.287 
19:00	43.9	43.9	43.9	49	26.0	0	0	---	0.00	30.293 
19:05	43.8	43.8	43.8	50	26.4	0	0	---	0.00	30.293 
19:10	43.6	43.6	43.6	53	27.6	0	0	---	0.00	30.293 
19:15	43.3	43.3	43.3	54	27.8	0	0	---	0.00	30.297 
19:20	43.2	43.2	43.2	54	27.7	0	0	---	0.00	30.297 
19:25	43.1	43.1	43.1	56	28.5	0	0	---	0.00	30.297 
19:30	42.9	42.9	42.9	56	28.3	0	0	---	0.00	30.294 
19:35	42.9	42.9	42.9	57	28.7	0	0	---	0.00	30.294 
19:40	42.8	42.8	42.8	55	27.8	0	0	---	0.00	30.294 
19:45	42.9	42.9	42.9	56	28.3	0	0	---	0.00	30.297 
19:50	42.9	42.9	42.9	56	28.3	0	0	---	0.00	30.297 
19:55	42.8	42.8	42.8	56	28.2	0	0	---	0.00	30.297 
20:00	42.6	42.6	42.6	56	28.0	0	0	---	0.00	30.297 
20:05	42.5	42.5	42.5	57	28.4	0	0	---	0.00	30.297 
20:10	42.3	42.3	42.3	58	28.6	0	0	---	0.00	30.297 
20:15	42.1	42.1	42.1	58	28.4	0	0	---	0.00	30.297 
20:20	41.9	41.9	41.9	59	28.6	0	0	---	0.00	30.297 
20:25	41.8	41.8	41.8	60	28.9	0	0	---	0.00	30.297 
20:30	41.6	41.6	41.6	59	28.3	0	0	---	0.00	30.300 
20:35	41.5	41.5	41.5	60	28.7	0	0	---	0.00	30.300 
20:40	41.3	41.3	41.3	60	28.5	0	0	---	0.00	30.300 
20:45	41.2	41.2	41.2	61	28.8	0	0	---	0.00	30.305 
20:50	41.1	41.1	41.1	62	29.1	0	0	---	0.00	30.305 
20:55	41.1	41.1	41.1	62	29.1	0	0	---	0.00	30.305 
21:00	40.9	40.9	40.9	63	29.3	0	0	---	0.00	30.306 
21:05	40.8	40.8	40.8	64	29.6	0	0	---	0.00	30.306 
21:10	40.6	40.6	40.6	64	29.4	0	0	---	0.00	30.306 
21:15	40.3	40.3	40.3	65	29.5	0	0	---	0.00	30.298 
21:20	40.1	40.1	40.1	67	30.0	0	0	---	0.00	30.298 
21:25	39.6	39.6	39.6	67	29.6	0	0	---	0.00	30.298 
21:30	39.3	39.3	39.3	68	29.6	0	0	---	0.00	30.309 
21:35	39.1	39.1	39.1	69	29.8	0	0	---	0.00	30.309 
21:40	38.8	38.8	38.8	69	29.5	0	0	---	0.00	30.309 
21:45	38.3	38.3	38.3	70	29.4	0	0	---	0.00	30.312 
21:50	38.0	38.0	38.0	71	29.4	0	0	---	0.00	30.312 
21:55	37.6	37.6	37.6	72	29.4	0	0	---	0.00	30.312 
22:00	37.5	37.5	37.5	72	29.3	0	0	---	0.00	30.314 
22:05	37.5	37.5	37.5	71	29.0	0	0	---	0.00	30.314 
22:10	37.3	37.3	37.3	72	29.1	0	0	---	0.00	30.314 
22:15	37.2	37.2	37.2	71	28.7	0	0	---	0.00	30.318 
22:20	36.9	36.9	36.9	71	28.4	0	0	---	0.00	30.318 
22:25	36.6	36.6	36.6	72	28.4	0	0	---	0.00	30.318 
22:30	36.2	36.2	36.2	73	28.4	0	0	---	0.00	30.323 
22:35	35.9	35.9	35.9	74	28.4	0	0	---	0.00	30.323 
22:40	35.6	35.6	35.6	75	28.5	0	0	---	0.00	30.323 
22:45	35.2	35.2	35.2	77	28.7	0	0	---	0.00	30.326 
22:50	34.9	34.9	34.9	77	28.4	0	0	---	0.00	30.326 
22:55	34.7	34.7	34.7	77	28.2	0	0	---	0.00	30.326 
23:00	34.4	34.4	34.4	78	28.3	0	0	---	0.00	30.326 
23:05	34.1	34.1	34.1	79	28.3	0	0	---	0.00	30.326 
23:10	33.8	33.8	33.8	80	28.3	0	0	---	0.00	30.326 
23:15	33.7	33.7	33.7	81	28.5	0	0	---	0.00	30.325 
23:20	33.4	33.4	33.4	81	28.2	0	0	---	0.00	30.325 
23:25	33.1	33.1	33.1	82	28.2	0	0	---	0.00	30.325 
23:30	32.9	32.9	32.9	83	28.3	0	0	---	0.00	30.328 
23:35	32.8	32.8	32.8	83	28.2	0	0	---	0.00	30.328 
23:40	32.7	32.7	32.7	83	28.1	0	0	---	0.00	30.328 
23:45	32.5	32.5	32.5	83	27.9	0	0	---	0.00	30.329 
23:50	32.4	32.4	32.4	84	28.1	0	0	---	0.00	30.329 
23:55	32.1	32.1	32.1	84	27.8	0	0	---	0.00	30.329 

CoCoRaHS
IN-AL-39
A2 Web Hosting
Creative Commons License
GoDaddy
search engine by freefind advanced

loaded 2018-11-16 00:40:31 • last modified 2010-11-18 10:43:29
Privacy PolicyDisclaimer
• wx.awcolley.com is powered by PmWiki v.2002016 •
• all content (unless otherwise noted) © 2018 A W Colley